ESMS

Malmö Sturup Airport

Malmö, Sweden
METAR ESMS 232220Z 05008KT 9999 BKN017 M01/M05 Q1030
Observed Flight Rules
Feb-23 @ 22:20 UTC (16 minutes ago) Marginal Visual Flight Rules
Wind Visibility Clouds
50° at 8 knots 10,000+ meters
  • Broken at 1,700' AGL
Temperatures Readings
Current -1°C / 30°F
Dewpoint -5°C / 23°F
Humidity 75%
Altimeter 30.41" Hg
Pressure 1030 hPa
Elevation 106
METAR ESMS 232220Z 05008KT 9999 BKN017 M01/M05 Q1030
Observed Flight Rules
Feb-23 @ 22:20 UTC
(16 minutes ago)
MVFR
Wind Visibility
50° at 8 knots 10,000+ meters
Clouds
  • Broken at 1,700' AGL
Temperature Dewpoint
-1°C / 30°F -5°C / 23°F
Humidity Altimeter Pressure
75% 30.41" Hg 1030 hPa